Time;durP1;ratioP1;P1;durP2;ratioP2;P2;SDS_P1;SDS_P2;PMS_P1;PMS_P2;Temp;Humidity;BMP_temperature;BMP_pressure;BME280_temperature;BME280_humidity;BME280_pressure;Samples;Min_cycle;Max_cycle;Signal;HPM_P1;HPM_P2
2022/01/04 00:01:59;;;;;;;48.72;30.52;;;;;;;5.82;100.00;97741.22;5112878;28;20083;-78
2022/01/04 00:04:25;;;;;;;41.90;24.73;;;;;;;5.84;100.00;97740.94;5113947;28;20078;-82
2022/01/04 00:06:50;;;;;;;45.20;26.27;;;;;;;5.78;100.00;97728.47;5112856;28;20060;-81
2022/01/04 00:09:16;;;;;;;40.40;22.67;;;;;;;5.78;100.00;97725.75;5112039;28;20035;-77
2022/01/04 00:11:59;;;;;;;38.58;22.55;;;;;;;5.81;100.00;97725.22;5111820;28;20059;-78
2022/01/04 00:14:25;;;;;;;34.88;20.83;;;;;;;5.61;100.00;97715.13;5113283;28;20034;-76
2022/01/04 00:16:54;;;;;;;34.25;21.13;;;;;;;5.68;100.00;97707.56;5114524;28;20492;-77
2022/01/04 00:19:20;;;;;;;40.28;24.08;;;;;;;5.64;100.00;97708.38;5112759;28;20039;-78
2022/01/04 00:21:45;;;;;;;42.03;25.48;;;;;;;5.72;100.00;97699.69;5112348;28;20019;-76
2022/01/04 00:24:11;;;;;;;42.47;24.60;;;;;;;5.85;100.00;97700.00;5118597;28;20064;-83
2022/01/04 00:26:36;;;;;;;42.03;24.20;;;;;;;5.84;100.00;97692.09;5114535;28;20031;-81
2022/01/04 00:29:02;;;;;;;39.95;24.30;;;;;;;5.88;100.00;97704.09;5113599;28;20108;-78
2022/01/04 00:31:28;;;;;;;42.38;24.60;;;;;;;5.90;100.00;97701.91;5113368;28;20420;-81
2022/01/04 00:33:53;;;;;;;45.08;25.58;;;;;;;5.89;100.00;97692.13;5114360;28;20023;-81
2022/01/04 00:36:19;;;;;;;48.35;26.73;;;;;;;5.87;100.00;97691.59;5115898;28;20640;-83
2022/01/04 00:38:45;;;;;;;43.22;25.15;;;;;;;6.04;100.00;97702.19;5116332;27;20110;-83
2022/01/04 00:41:10;;;;;;;41.85;25.23;;;;;;;6.00;100.00;97693.75;5114908;28;20379;-82
2022/01/04 00:43:35;;;;;;;45.33;26.20;;;;;;;5.91;100.00;97690.78;5115621;28;20456;-81
2022/01/04 00:46:01;;;;;;;41.67;26.48;;;;;;;5.88;100.00;97694.03;5116429;28;20039;-81
2022/01/04 00:50:53;;;;;;;42.75;25.20;;;;;;;5.86;100.00;97695.38;5116889;28;20015;-83
2022/01/04 00:53:19;;;;;;;44.80;24.65;;;;;;;5.85;100.00;97693.75;5118296;28;20024;-83
2022/01/04 00:55:44;;;;;;;44.28;25.25;;;;;;;5.92;100.00;97702.44;5117367;28;20044;-86
2022/01/04 00:58:10;;;;;;;42.85;24.13;;;;;;;5.90;100.00;97699.19;5117566;28;20042;-87
2022/01/04 01:00:36;;;;;;;40.35;23.17;;;;;;;5.92;100.00;97688.84;5116459;28;20391;-82
2022/01/04 01:03:02;;;;;;;38.33;22.05;;;;;;;5.85;100.00;97691.03;5116835;28;20138;-84
2022/01/04 01:05:28;;;;;;;39.30;23.23;;;;;;;5.83;100.00;97687.75;5115469;28;20473;-80
2022/01/04 01:07:54;;;;;;;34.40;21.90;;;;;;;5.87;100.00;97703.25;5115574;27;20028;-79
2022/01/04 01:12:50;;;;;;;41.25;21.73;;;;;;;5.83;100.00;97704.03;5117946;28;20491;-82
2022/01/04 01:15:16;;;;;;;33.97;19.23;;;;;;;5.89;100.00;97697.53;5117351;28;20027;-78
2022/01/04 01:17:41;;;;;;;38.78;21.05;;;;;;;5.89;100.00;97697.53;5127552;28;20361;-86
2022/01/04 01:20:09;;;;;;;35.17;19.90;;;;;;;5.90;100.00;97691.03;5124664;28;20041;-82
2022/01/04 01:22:35;;;;;;;32.85;18.70;;;;;;;5.86;100.00;97682.63;5123367;28;20099;-81
2022/01/04 01:25:01;;;;;;;34.67;20.13;;;;;;;5.82;100.00;97680.72;5122938;28;20550;-84
2022/01/04 01:27:26;;;;;;;34.30;20.13;;;;;;;5.90;100.00;97681.00;5123771;28;20491;-83
2022/01/04 01:29:52;;;;;;;37.75;19.73;;;;;;;5.91;100.00;97688.06;5124401;28;20031;-82
2022/01/04 01:32:17;;;;;;;34.75;20.17;;;;;;;5.84;100.00;97681.25;5125911;28;20072;-81
2022/01/04 01:34:43;;;;;;;37.38;20.08;;;;;;;5.85;100.00;97691.88;5126161;28;20047;-83
2022/01/04 01:37:09;;;;;;;36.00;20.38;;;;;;;5.85;100.00;97682.88;5125666;28;20027;-88
2022/01/04 01:39:34;;;;;;;36.28;18.92;;;;;;;5.79;100.00;97673.13;5127480;28;20038;-80
2022/01/04 01:42:00;;;;;;;38.33;22.25;;;;;;;5.85;100.00;97670.16;5126380;28;20016;-80
2022/01/04 01:44:29;;;;;;;36.80;21.02;;;;;;;5.78;100.00;97672.28;5125103;28;20020;-80
2022/01/04 01:46:57;;;;;;;39.22;21.33;;;;;;;5.77;100.00;97657.09;5124557;28;20103;-82
2022/01/04 01:49:23;;;;;;;38.85;21.75;;;;;;;5.78;100.00;97645.16;5123180;28;20032;-83
2022/01/04 01:51:51;;;;;;;39.67;21.13;;;;;;;5.78;100.00;97641.63;5125068;28;20035;-84
2022/01/04 01:54:16;;;;;;;40.55;21.90;;;;;;;5.80;100.00;97636.72;5123280;28;20018;-81
2022/01/04 01:56:42;;;;;;;37.40;22.48;;;;;;;5.75;100.00;97625.88;5124360;28;20130;-85
2022/01/04 01:59:08;;;;;;;39.67;22.27;;;;;;;5.70;100.00;97615.06;5123719;28;20099;-83
2022/01/04 02:01:34;;;;;;;36.70;22.55;;;;;;;5.63;100.00;97614.50;5116990;28;20087;-83
2022/01/04 02:03:59;;;;;;;41.88;22.65;;;;;;;5.57;100.00;97615.59;5115874;28;20079;-81
2022/01/04 02:06:29;;;;;;;39.08;23.45;;;;;;;5.39;100.00;97606.09;5118830;28;20024;-79
2022/01/04 02:08:56;;;;;;;40.97;22.75;;;;;;;5.43;100.00;97607.19;5124508;28;20035;-83
2022/01/04 02:11:23;;;;;;;39.00;23.67;;;;;;;5.39;100.00;97595.22;5123947;28;20028;-80
2022/01/04 02:13:49;;;;;;;38.30;22.45;;;;;;;5.45;100.00;97596.84;5125029;28;20008;-83
2022/01/04 02:16:16;;;;;;;40.33;23.63;;;;;;;5.38;100.00;97596.34;5121029;28;20126;-84
2022/01/04 02:18:42;;;;;;;36.72;22.70;;;;;;;5.42;100.00;97591.19;5119209;28;20040;-82
2022/01/04 02:21:07;;;;;;;35.45;21.70;;;;;;;5.47;100.00;97588.47;5118596;28;20038;-84
2022/01/04 02:23:33;;;;;;;38.42;23.50;;;;;;;5.44;100.00;97589.00;5118362;28;20024;-83
2022/01/04 02:26:01;;;;;;;40.42;24.17;;;;;;;5.51;100.00;97578.72;5118025;28;20016;-82
2022/01/04 02:28:29;;;;;;;44.03;24.48;;;;;;;5.51;100.00;97579.53;5118495;28;20027;-82
2022/01/04 02:30:54;;;;;;;46.80;26.13;;;;;;;5.45;100.00;97558.88;5119560;28;20031;-85
2022/01/04 02:33:20;;;;;;;44.47;25.92;;;;;;;5.48;100.00;97562.97;5120008;28;20016;-82
2022/01/04 02:35:45;;;;;;;46.10;26.20;;;;;;;5.49;100.00;97554.56;5121015;28;20039;-81
2022/01/04 02:38:11;;;;;;;48.80;29.02;;;;;;;5.36;100.00;97560.53;5120581;28;20084;-86
2022/01/04 02:40:37;;;;;;;43.58;27.15;;;;;;;5.33;100.00;97561.88;5117346;28;20508;-83
2022/01/04 02:43:03;;;;;;;51.88;30.38;;;;;;;5.35;100.00;97554.31;5117445;28;20035;-82
2022/01/04 02:45:28;;;;;;;49.22;31.23;;;;;;;5.31;100.00;97539.66;5119637;28;20476;-85
2022/01/04 02:47:54;;;;;;;51.95;31.45;;;;;;;5.38;100.00;97542.09;5118798;28;20027;-82
2022/01/04 02:50:19;;;;;;;51.50;30.38;;;;;;;5.47;100.00;97534.22;5119556;28;20498;-84
2022/01/04 02:52:45;;;;;;;49.67;29.00;;;;;;;5.45;100.00;97530.97;5117095;28;20072;-80
2022/01/04 02:55:13;;;;;;;47.55;28.67;;;;;;;5.50;100.00;97534.50;5118799;28;20048;-82
2022/01/04 02:57:40;;;;;;;50.17;29.90;;;;;;;5.49;100.00;97541.00;5120625;28;20015;-82
2022/01/04 03:00:09;;;;;;;46.97;29.77;;;;;;;5.49;100.00;97537.47;5122346;28;20051;-84
2022/01/04 03:02:35;;;;;;;51.22;29.88;;;;;;;5.51;100.00;97529.88;5122230;28;20075;-80
2022/01/04 03:05:00;;;;;;;47.50;28.55;;;;;;;5.55;100.00;97528.22;5121795;28;20051;-80
2022/01/04 03:07:26;;;;;;;46.03;26.92;;;;;;;5.57;100.00;97517.94;5125479;28;20027;-84
2022/01/04 03:09:51;;;;;;;45.35;27.42;;;;;;;5.45;100.00;97518.22;5128067;28;20049;-86
2022/01/04 03:12:17;;;;;;;46.10;29.10;;;;;;;5.53;100.00;97512.25;5126971;28;20072;-84
2022/01/04 03:14:42;;;;;;;51.13;28.48;;;;;;;5.50;100.00;97517.41;5125176;28;20102;-81
2022/01/04 03:17:08;;;;;;;44.33;26.60;;;;;;;5.45;100.00;97539.13;5126297;28;20024;-82
2022/01/04 03:19:33;;;;;;;44.70;28.20;;;;;;;5.50;100.00;97517.41;5124797;28;20031;-85
2022/01/04 03:21:59;;;;;;;46.10;27.23;;;;;;;5.46;100.00;97525.28;5109057;28;20032;-87
2022/01/04 03:24:25;;;;;;;47.42;28.23;;;;;;;5.35;100.00;97508.22;5125941;28;20027;-85
2022/01/04 03:26:50;;;;;;;40.03;25.40;;;;;;;5.44;100.00;97513.06;5125468;28;20023;-82
2022/01/04 03:29:16;;;;;;;39.45;24.63;;;;;;;5.32;100.00;97505.22;5124914;27;20372;-84
2022/01/04 03:31:43;;;;;;;44.47;25.98;;;;;;;5.43;100.00;97500.59;5125014;28;20184;-84
2022/01/04 03:34:09;;;;;;;46.97;26.67;;;;;;;5.33;100.00;97517.69;5125548;28;20039;-83
2022/01/04 03:36:35;;;;;;;49.47;26.95;;;;;;;5.39;100.00;97517.41;5120077;28;20024;-81
2022/01/04 03:39:04;;;;;;;44.83;26.98;;;;;;;5.42;100.00;97493.56;5110102;28;20503;-81
2022/01/04 03:41:31;;;;;;;40.95;24.10;;;;;;;5.37;100.00;97497.91;5097734;28;20030;-81
2022/01/04 03:43:56;;;;;;;40.58;24.40;;;;;;;5.41;100.00;97481.91;5097612;28;20024;-81
2022/01/04 03:46:22;;;;;;;38.58;23.50;;;;;;;5.40;100.00;97491.09;5097856;28;20038;-80
2022/01/04 03:48:48;;;;;;;42.30;24.65;;;;;;;5.42;100.00;97488.94;5097335;28;20547;-86
2022/01/04 03:51:14;;;;;;;42.70;23.80;;;;;;;5.36;100.00;97474.56;5104517;28;20039;-87
2022/01/04 03:53:39;;;;;;;40.65;23.63;;;;;;;5.48;100.00;97473.47;5101891;28;20028;-82
2022/01/04 03:56:06;;;;;;;39.55;22.98;;;;;;;5.45;100.00;97472.09;5102036;28;20044;-85
2022/01/04 03:58:31;;;;;;;39.30;23.00;;;;;;;5.48;100.00;97465.34;5100334;28;20423;-81
2022/01/04 04:00:57;;;;;;;39.58;22.45;;;;;;;5.48;100.00;97462.63;5099972;28;20027;-83
2022/01/04 04:03:22;;;;;;;36.97;21.75;;;;;;;5.47;100.00;97463.72;5097789;28;20081;-83
2022/01/04 04:05:49;;;;;;;37.60;21.90;;;;;;;5.37;100.00;97459.94;5095034;28;20032;-82
2022/01/04 04:08:15;;;;;;;38.15;21.63;;;;;;;5.44;100.00;97456.13;5098734;28;20039;-82
2022/01/04 04:10:40;;;;;;;38.50;22.10;;;;;;;5.39;100.00;97440.66;5103208;28;20028;-83
2022/01/04 04:13:06;;;;;;;36.58;22.05;;;;;;;5.45;100.00;97450.41;5104828;28;20035;-83
2022/01/04 04:15:31;;;;;;;40.00;22.27;;;;;;;5.38;100.00;97450.72;5104747;28;20019;-86
2022/01/04 04:17:57;;;;;;;36.40;22.05;;;;;;;5.38;100.00;97448.00;5102902;28;20096;-84
2022/01/04 04:20:22;;;;;;;38.20;22.30;;;;;;;5.48;100.00;97454.50;5100502;28;20114;-79
2022/01/04 04:22:48;;;;;;;38.95;24.23;;;;;;;5.39;100.00;97436.06;5093724;28;20578;-80
2022/01/04 04:25:13;;;;;;;40.25;23.27;;;;;;;5.41;100.00;97435.81;5093663;28;20024;-81
2022/01/04 04:27:40;;;;;;;44.10;23.85;;;;;;;5.37;100.00;97438.25;5094569;28;20048;-81
2022/01/04 04:30:06;;;;;;;38.00;21.27;;;;;;;5.45;100.00;97428.72;5101903;28;20054;-86
2022/01/04 04:32:32;;;;;;;35.45;20.17;;;;;;;5.48;100.00;97420.06;5107382;28;20024;-86
2022/01/04 04:34:57;;;;;;;32.22;19.48;;;;;;;5.61;100.00;97424.06;5106030;28;20029;-83
2022/01/04 04:37:23;;;;;;;27.35;14.27;;;;;;;5.82;100.00;97417.50;5100446;28;20131;-79
2022/01/04 04:39:48;;;;;;;20.35;9.98;;;;;;;6.04;100.00;97415.25;5099543;28;20028;-79
2022/01/04 04:42:14;;;;;;;13.52;8.40;;;;;;;6.28;100.00;97418.91;5105294;28;20024;-83
2022/01/04 04:44:39;;;;;;;11.77;7.15;;;;;;;6.48;100.00;97426.91;5103803;28;20081;-86
2022/01/04 04:47:05;;;;;;;13.88;6.13;;;;;;;6.81;100.00;97427.22;5097800;28;20024;-84
2022/01/04 04:49:30;;;;;;;7.65;4.85;;;;;;;7.01;100.00;97435.22;5093459;28;20445;-75
2022/01/04 04:51:59;;;;;;;8.18;4.53;;;;;;;7.11;100.00;97426.94;5091451;28;20459;-76
2022/01/04 04:54:24;;;;;;;9.77;4.43;;;;;;;7.19;100.00;97426.34;5091950;28;20480;-76
2022/01/04 04:56:50;;;;;;;7.28;4.45;;;;;;;7.27;100.00;97425.72;5101777;28;20047;-76
2022/01/04 04:59:15;;;;;;;10.35;5.43;;;;;;;7.26;100.00;97436.88;5112756;28;20029;-80
2022/01/04 05:01:41;;;;;;;10.85;4.38;;;;;;;7.31;100.00;97434.94;5111364;28;20019;-77
2022/01/04 05:04:06;;;;;;;7.70;4.40;;;;;;;7.34;100.00;97434.34;5110466;28;20318;-74
2022/01/04 05:06:31;;;;;;;8.15;4.30;;;;;;;7.43;100.00;97442.69;5111894;28;20020;-78
2022/01/04 05:08:57;;;;;;;6.82;4.10;;;;;;;7.45;100.00;97435.88;5111799;28;20066;-78
2022/01/04 05:11:22;;;;;;;7.22;4.15;;;;;;;7.49;100.00;97436.91;5111620;28;20176;-76
2022/01/04 05:13:48;;;;;;;9.07;4.22;;;;;;;7.52;100.00;97430.88;5111579;28;20023;-75
2022/01/04 05:16:13;;;;;;;9.45;4.20;;;;;;;7.58;100.00;97428.13;5100324;28;20078;-84
2022/01/04 05:18:39;;;;;;;7.10;4.03;;;;;;;7.60;100.00;97429.47;5098916;28;20020;-89
2022/01/04 05:21:04;;;;;;;7.55;4.28;;;;;;;7.55;100.00;97419.44;5100741;28;20056;-80
2022/01/04 05:23:31;;;;;;;9.38;4.07;;;;;;;7.60;100.00;97412.31;5097910;28;20024;-78
2022/01/04 05:25:57;;;;;;;7.30;3.78;;;;;;;7.58;100.00;97407.16;5097385;28;20038;-80
2022/01/04 05:28:22;;;;;;;7.40;4.03;;;;;;;7.61;100.00;97416.66;5100322;28;20487;-82
2022/01/04 05:30:48;;;;;;;7.63;3.78;;;;;;;7.58;100.00;97406.38;5097298;28;20480;-78
2022/01/04 05:33:14;;;;;;;9.13;3.80;;;;;;;7.56;100.00;97403.91;5095631;28;20053;-85
2022/01/04 05:35:39;;;;;;;6.50;3.55;;;;;;;7.62;100.00;97407.38;5093286;28;20449;-75
2022/01/04 05:38:04;;;;;;;6.50;3.78;;;;;;;7.66;100.00;97394.81;5094362;28;20040;-78
2022/01/04 05:40:30;;;;;;;7.68;3.78;;;;;;;7.67;100.00;97404.63;5094883;28;20031;-81
2022/01/04 05:42:55;;;;;;;6.50;3.83;;;;;;;7.63;100.00;97398.13;5097369;28;20027;-84
2022/01/04 05:45:21;;;;;;;12.30;4.18;;;;;;;7.66;100.00;97403.00;5099368;28;20030;-82
2022/01/04 05:47:46;;;;;;;8.15;4.00;;;;;;;7.67;100.00;97410.88;5098319;28;20024;-90
2022/01/04 05:50:12;;;;;;;6.10;3.60;;;;;;;7.64;100.00;97407.91;5096302;28;20024;-84
2022/01/04 05:52:38;;;;;;;7.32;3.90;;;;;;;7.67;100.00;97410.88;5099186;28;20039;-82
2022/01/04 05:55:03;;;;;;;7.10;3.45;;;;;;;7.66;100.00;97405.72;5100508;28;20099;-81
2022/01/04 05:57:29;;;;;;;7.70;4.78;;;;;;;7.64;100.00;97411.47;5118916;28;20051;-85
2022/01/04 05:59:54;;;;;;;9.32;4.43;;;;;;;7.72;100.00;97396.38;5116264;28;20119;-85
2022/01/04 06:02:20;;;;;;;8.65;4.07;;;;;;;7.74;100.00;97405.88;5117452;28;20027;-81
2022/01/04 06:04:45;;;;;;;7.60;3.65;;;;;;;7.77;100.00;97404.50;5112399;28;20063;-77
2022/01/04 06:07:11;;;;;;;7.60;3.90;;;;;;;7.76;100.00;97403.69;5113427;28;20095;-77
2022/01/04 06:09:44;;;;;;;6.70;3.50;;;;;;;7.71;100.00;97394.75;5112063;28;20063;-77
2022/01/04 06:14:59;;;;;;;8.13;4.32;;;;;;;7.80;100.00;97403.94;5110603;28;20023;-81
2022/01/04 06:17:39;;;;;;;8.95;5.38;;;;;;;7.80;100.00;97402.00;5112011;28;20072;-76
2022/01/04 06:20:06;;;;;;;8.52;4.75;;;;;;;7.80;100.00;97398.47;5118408;28;20035;-85
2022/01/04 06:22:32;;;;;;;9.15;5.18;;;;;;;7.85;100.00;97390.25;5115653;28;20024;-86
2022/01/04 06:24:57;;;;;;;8.85;4.97;;;;;;;7.79;100.00;97392.22;5116507;28;20498;-79
2022/01/04 06:27:23;;;;;;;7.05;4.75;;;;;;;7.87;100.00;97398.91;5117938;28;20116;-80
2022/01/04 06:29:49;;;;;;;7.68;3.92;;;;;;;7.91;100.00;97391.78;5117556;28;20489;-81
2022/01/04 06:32:16;;;;;;;7.55;3.75;;;;;;;7.93;100.00;97397.75;5118540;28;20140;-78
2022/01/04 06:34:42;;;;;;;8.55;3.90;;;;;;;7.92;100.00;97382.53;5118984;28;20020;-83
2022/01/04 06:37:09;;;;;;;8.77;4.15;;;;;;;7.99;100.00;97393.84;5123804;28;20008;-86
2022/01/04 06:39:34;;;;;;;6.53;3.90;;;;;;;7.95;100.00;97384.66;5124127;28;20019;-85
2022/01/04 06:42:00;;;;;;;7.68;4.60;;;;;;;7.98;100.00;97394.97;5124580;28;20041;-83
2022/01/04 06:44:25;;;;;;;8.48;3.70;;;;;;;7.93;100.00;97392.31;5126364;28;20031;-82
2022/01/04 06:46:51;;;;;;;9.30;4.72;;;;;;;7.89;100.00;97396.72;5123290;28;20019;-80
2022/01/04 06:49:18;;;;;;;7.63;4.22;;;;;;;7.83;100.00;97387.00;5123539;28;20031;-80
2022/01/04 06:51:45;;;;;;;11.95;4.25;;;;;;;7.88;100.00;97390.47;5121641;28;20028;-81
2022/01/04 06:54:12;;;;;;;15.63;8.60;;;;;;;7.89;100.00;97383.13;5121917;28;20043;-80
2022/01/04 06:56:38;;;;;;;10.35;5.40;;;;;;;7.86;100.00;97370.88;5123416;28;20046;-80
2022/01/04 06:59:05;;;;;;;9.73;4.72;;;;;;;7.96;100.00;97380.81;5122383;28;20496;-85
2022/01/04 07:01:32;;;;;;;8.40;4.25;;;;;;;7.93;100.00;97375.97;5122396;28;20360;-83
2022/01/04 07:03:57;;;;;;;12.75;4.90;;;;;;;7.92;100.00;97374.38;5121441;28;20023;-82
2022/01/04 07:06:23;;;;;;;9.57;4.30;;;;;;;7.95;100.00;97379.22;5122295;28;20019;-81
2022/01/04 07:08:48;;;;;;;7.82;4.63;;;;;;;7.94;100.00;97372.16;5124745;28;20471;-84
2022/01/04 07:11:14;;;;;;;7.53;4.35;;;;;;;7.94;100.00;97383.03;5122800;28;20020;-84
2022/01/04 07:13:40;;;;;;;9.90;4.45;;;;;;;7.99;100.00;97389.22;5124947;28;20066;-83
2022/01/04 07:16:06;;;;;;;9.15;3.97;;;;;;;7.98;100.00;97374.00;5123149;28;20044;-80
2022/01/04 07:18:32;;;;;;;10.13;4.38;;;;;;;7.99;100.00;97385.69;5118395;28;20110;-76
2022/01/04 07:20:57;;;;;;;8.23;4.47;;;;;;;8.03;100.00;97384.00;5114192;28;20070;-75
2022/01/04 07:23:23;;;;;;;8.60;3.88;;;;;;;8.06;100.00;97380.69;5114240;28;20031;-76
2022/01/04 07:25:49;;;;;;;7.38;3.95;;;;;;;8.06;100.00;97378.78;5114223;28;20555;-76
2022/01/04 07:28:15;;;;;;;9.40;4.45;;;;;;;8.01;100.00;97384.31;5113083;28;20033;-78
2022/01/04 07:30:40;;;;;;;10.02;3.97;;;;;;;8.08;100.00;97387.47;5082559;28;20108;-76
2022/01/04 07:33:06;;;;;;;10.25;4.75;;;;;;;8.06;100.00;97391.59;5113790;27;20486;-76
2022/01/04 07:35:31;;;;;;;10.05;4.95;;;;;;;8.01;100.00;97380.78;5105234;28;20024;-81
2022/01/04 07:37:57;;;;;;;8.55;4.22;;;;;;;8.03;100.00;97387.53;5096650;28;20008;-81
2022/01/04 07:40:22;;;;;;;9.57;4.32;;;;;;;8.05;100.00;97389.97;5096529;28;20540;-81
2022/01/04 07:42:48;;;;;;;8.43;5.13;;;;;;;8.06;100.00;97383.41;5099339;28;20087;-81
2022/01/04 07:45:14;;;;;;;9.20;4.95;;;;;;;8.08;100.00;97381.22;5099983;28;20024;-80
2022/01/04 07:47:41;;;;;;;8.32;4.60;;;;;;;8.06;100.00;97389.69;5107748;28;20027;-78
2022/01/04 07:50:08;;;;;;;9.15;5.32;;;;;;;8.13;100.00;97386.59;5114150;28;20108;-78
2022/01/04 07:52:34;;;;;;;14.43;5.18;;;;;;;8.15;100.00;97383.56;5114356;28;20024;-81
2022/01/04 07:55:00;;;;;;;9.38;4.88;;;;;;;8.16;100.00;97388.72;5113137;28;20034;-77
2022/01/04 07:57:25;;;;;;;9.07;4.63;;;;;;;8.15;100.00;97383.56;5115647;28;20438;-76
2022/01/04 07:59:50;;;;;;;8.75;5.03;;;;;;;8.14;100.00;97393.66;5117356;28;20030;-75
2022/01/04 08:02:16;;;;;;;8.43;5.00;;;;;;;8.14;100.00;97387.41;5113427;28;20110;-73
2022/01/04 08:04:42;;;;;;;7.75;4.72;;;;;;;8.11;100.00;97383.38;5113462;28;20027;-81
2022/01/04 08:07:07;;;;;;;9.50;4.63;;;;;;;8.16;100.00;97377.03;5106720;28;20081;-82
2022/01/04 08:09:33;;;;;;;7.70;4.15;;;;;;;8.14;100.00;97387.41;5115719;28;20468;-79
2022/01/04 08:11:58;;;;;;;8.35;4.80;;;;;;;8.13;100.00;97378.41;5116688;28;20074;-77
2022/01/04 08:14:23;;;;;;;10.00;4.60;;;;;;;8.21;100.00;97396.81;5115269;28;20024;-77
2022/01/04 08:16:49;;;;;;;7.70;4.18;;;;;;;8.16;100.00;97388.72;5112187;28;20384;-76
2022/01/04 08:19:14;;;;;;;8.90;4.82;;;;;;;8.17;100.00;97382.19;5121264;28;20403;-77
2022/01/04 08:21:40;;;;;;;8.80;4.72;;;;;;;8.11;100.00;97386.09;5112597;27;20098;-78
2022/01/04 08:24:06;;;;;;;7.70;4.63;;;;;;;8.07;100.00;97388.59;5105454;28;20484;-76
2022/01/04 08:26:31;;;;;;;10.55;4.88;;;;;;;8.09;100.00;97374.66;5111903;28;20548;-75
2022/01/04 08:28:57;;;;;;;9.40;4.07;;;;;;;8.15;100.00;97391.72;5113006;28;20077;-77
2022/01/04 08:31:23;;;;;;;8.82;4.68;;;;;;;8.14;100.00;97392.84;5112428;28;20029;-75
2022/01/04 08:33:48;;;;;;;9.38;4.50;;;;;;;8.11;100.00;97382.56;5112105;28;20031;-77
2022/01/04 08:36:14;;;;;;;9.00;4.75;;;;;;;8.14;100.00;97390.94;5111552;28;20035;-79
2022/01/04 08:38:39;;;;;;;9.80;4.95;;;;;;;8.15;100.00;97378.94;5111981;28;20020;-77
2022/01/04 08:41:05;;;;;;;8.15;4.22;;;;;;;8.18;100.00;97378.34;5111672;28;20020;-76
2022/01/04 08:43:31;;;;;;;10.30;4.10;;;;;;;8.12;100.00;97384.97;5112256;28;20018;-76
2022/01/04 08:45:56;;;;;;;7.80;4.25;;;;;;;8.12;100.00;97387.69;5112027;28;20412;-75
2022/01/04 08:48:22;;;;;;;9.63;4.88;;;;;;;8.12;100.00;97374.06;5112285;28;20129;-80
2022/01/04 08:50:48;;;;;;;10.80;5.32;;;;;;;8.24;100.00;97373.66;5113346;28;20468;-78
2022/01/04 08:53:14;;;;;;;8.10;3.85;;;;;;;8.22;100.00;97367.66;5114074;28;20499;-77
2022/01/04 08:55:40;;;;;;;7.80;3.97;;;;;;;8.32;100.00;97368.38;5115596;28;20050;-79
2022/01/04 08:58:06;;;;;;;6.90;4.10;;;;;;;8.35;100.00;97362.34;5116985;28;20027;-81
2022/01/04 09:00:32;;;;;;;9.15;3.78;;;;;;;8.36;100.00;97361.25;5117115;28;20379;-81
2022/01/04 09:02:59;;;;;;;9.20;4.00;;;;;;;8.40;100.00;97358.69;5113319;28;20016;-82
2022/01/04 09:05:29;;;;;;;6.93;3.58;;;;;;;8.43;100.00;97369.00;5117500;28;20011;-85
2022/01/04 09:07:54;;;;;;;6.57;3.22;;;;;;;8.44;100.00;97366.00;5108564;28;20055;-81
2022/01/04 09:10:20;;;;;;;10.98;3.63;;;;;;;8.48;100.00;97360.78;5109190;28;20135;-75
2022/01/04 09:20:48;;;;;;;7.85;3.60;;;;;;;8.60;100.00;97359.22;5122098;28;20055;-84
2022/01/04 09:23:18;;;;;;;6.95;3.25;;;;;;;8.67;100.00;97361.56;5117665;28;20850;-85
2022/01/04 09:25:45;;;;;;;8.75;4.03;;;;;;;8.73;100.00;97357.66;5109157;28;20109;-82
2022/01/04 09:28:11;;;;;;;5.80;3.42;;;;;;;8.76;100.00;97356.22;5109610;28;20556;-74
2022/01/04 09:30:38;;;;;;;5.97;3.50;;;;;;;8.78;100.00;97351.28;5111087;28;20024;-85
2022/01/04 09:33:05;;;;;;;8.80;3.40;;;;;;;8.73;100.00;97354.09;5110835;28;20531;-77
2022/01/04 09:35:34;;;;;;;7.63;3.60;;;;;;;8.75;100.00;97358.16;5108913;28;20120;-83
2022/01/04 09:37:59;;;;;;;8.48;4.97;;;;;;;8.69;100.00;97353.06;5108349;28;20019;-81
2022/01/04 09:40:27;;;;;;;10.32;4.18;;;;;;;8.72;100.00;97350.56;5104594;28;20102;-81
2022/01/04 09:42:54;;;;;;;9.00;3.63;;;;;;;8.68;100.00;97351.47;5118620;28;20011;-77
2022/01/04 09:45:19;;;;;;;6.97;3.38;;;;;;;8.77;100.00;97346.97;5109330;28;20400;-82
2022/01/04 09:47:45;;;;;;;7.63;3.17;;;;;;;8.75;100.00;97341.78;5110725;28;20024;-74
2022/01/04 09:50:10;;;;;;;6.18;2.97;;;;;;;8.69;100.00;97339.44;5115048;28;20023;-75
2022/01/04 09:52:42;;;;;;;8.20;3.13;;;;;;;8.66;100.00;97329.94;5109747;28;20019;-75
2022/01/04 09:55:11;;;;;;;5.95;2.53;;;;;;;8.64;100.00;97317.72;5108484;28;20070;-84
2022/01/04 09:57:36;;;;;;;5.53;2.97;;;;;;;8.74;100.00;97314.84;5116449;28;21180;-81
2022/01/04 10:00:06;;;;;;;6.13;3.10;;;;;;;8.76;100.00;97318.88;5116636;28;20036;-84
2022/01/04 10:02:35;;;;;;;5.88;2.88;;;;;;;8.77;100.00;97306.84;5115463;28;20042;-82
2022/01/04 10:05:17;;;;;;;6.90;2.63;;;;;;;8.81;100.00;97288.78;5124224;28;20039;-75
2022/01/04 10:07:44;;;;;;;6.43;3.10;;;;;;;8.94;100.00;97285.28;5106743;28;20035;-78
2022/01/04 10:10:11;;;;;;;5.30;2.80;;;;;;;9.05;100.00;97283.16;5106646;28;20539;-75
2022/01/04 10:12:55;;;;;;;4.90;2.85;;;;;;;9.19;100.00;97283.16;5112092;28;20023;-76
2022/01/04 10:15:43;;;;;;;6.00;3.13;;;;;;;9.16;100.00;97276.41;5112594;28;20022;-76
2022/01/04 10:18:17;;;;;;;5.50;2.63;;;;;;;9.12;100.00;97267.19;5103840;28;20119;-82
2022/01/04 10:20:45;;;;;;;6.00;3.05;;;;;;;9.08;100.00;97271.66;5103393;28;20028;-81
2022/01/04 10:23:16;;;;;;;4.85;3.05;;;;;;;9.04;100.00;97267.91;5116661;28;20480;-80
2022/01/04 10:25:43;;;;;;;5.45;2.55;;;;;;;9.01;100.00;97260.31;5110728;28;20487;-78
2022/01/04 10:28:08;;;;;;;4.57;2.33;;;;;;;8.96;100.00;97261.22;5115405;28;20120;-85
2022/01/04 10:30:44;;;;;;;5.57;2.38;;;;;;;9.01;100.00;97265.78;5121386;28;20019;-77
2022/01/04 10:33:11;;;;;;;4.13;2.25;;;;;;;9.02;100.00;97257.28;5115486;28;20501;-83
2022/01/04 10:35:40;;;;;;;5.22;2.03;;;;;;;8.95;100.00;97273.25;5120800;28;20478;-84
2022/01/04 10:38:15;;;;;;;4.05;2.10;;;;;;;8.97;100.00;97260.13;5120140;28;20544;-80
2022/01/04 10:41:00;;;;;;;4.05;2.00;;;;;;;8.92;100.00;97241.13;5117970;28;20035;-79
2022/01/04 10:43:31;;;;;;;3.90;2.33;;;;;;;9.01;100.00;97243.97;5117196;28;20069;-82
2022/01/04 10:45:58;;;;;;;6.22;2.10;;;;;;;9.01;100.00;97243.97;5118514;28;20028;-79
2022/01/04 10:48:31;;;;;;;5.57;2.20;;;;;;;8.97;100.00;97234.75;5116425;28;20584;-83
2022/01/04 10:51:04;;;;;;;3.53;1.90;;;;;;;9.04;100.00;97246.09;5118824;28;20023;-86
2022/01/04 10:53:32;;;;;;;3.17;1.73;;;;;;;9.06;100.00;97233.75;5125292;28;20023;-84
2022/01/04 10:56:01;;;;;;;4.30;2.10;;;;;;;9.05;100.00;97231.34;5125319;28;20052;-76
2022/01/04 10:58:37;;;;;;;3.80;1.92;;;;;;;8.99;100.00;97235.28;5103081;28;20032;-74
2022/01/04 11:01:11;;;;;;;4.20;2.00;;;;;;;9.00;100.00;97231.44;5105304;28;20043;-76
2022/01/04 11:03:54;;;;;;;4.63;2.42;;;;;;;8.96;100.00;97235.84;5105261;28;20077;-80
2022/01/04 11:06:29;;;;;;;3.83;2.00;;;;;;;8.98;100.00;97234.47;5107309;28;20031;-74
2022/01/04 11:08:55;;;;;;;5.95;2.50;;;;;;;8.94;100.00;97233.44;5103200;28;20028;-74
2022/01/04 11:11:21;;;;;;;4.55;2.10;;;;;;;8.98;100.00;97228.19;5110168;28;20034;-74
2022/01/04 11:13:48;;;;;;;5.00;1.92;;;;;;;9.03;100.00;97220.72;5111488;28;20095;-76
2022/01/04 11:16:15;;;;;;;4.32;1.85;;;;;;;9.12;100.00;97212.63;5107100;28;20034;-77
2022/01/04 11:18:41;;;;;;;3.38;1.85;;;;;;;9.09;100.00;97203.13;5110669;28;20015;-75
2022/01/04 11:21:12;;;;;;;3.20;1.58;;;;;;;9.14;100.00;97202.25;5105982;28;20020;-76
2022/01/04 11:23:39;;;;;;;3.13;1.80;;;;;;;9.22;100.00;97185.13;5101600;28;20032;-74
2022/01/04 11:26:05;;;;;;;3.70;1.95;;;;;;;9.23;100.00;97181.31;5103262;28;20456;-75
2022/01/04 11:28:31;;;;;;;3.05;1.80;;;;;;;9.34;100.00;97192.78;5111000;28;20039;-73
2022/01/04 11:30:59;;;;;;;3.42;1.85;;;;;;;9.34;100.00;97188.16;5103305;28;20023;-76
2022/01/04 11:33:43;;;;;;;3.45;1.77;;;;;;;9.27;100.00;97185.03;5103319;28;20020;-78
2022/01/04 11:36:11;;;;;;;3.08;1.60;;;;;;;9.21;100.00;97175.31;5100345;28;20118;-75
2022/01/04 11:38:37;;;;;;;2.53;1.33;;;;;;;9.22;100.00;97179.69;5105280;28;20028;-75
2022/01/04 11:41:05;;;;;;;3.58;1.90;;;;;;;9.23;100.00;97175.84;5105229;28;20024;-76